Time;durP1;ratioP1;P1;durP2;ratioP2;P2;SDS_P1;SDS_P2;PMS_P1;PMS_P2;Temp;Humidity;BMP_temperature;BMP_pressure;BME280_temperature;BME280_humidity;BME280_pressure;Samples;Min_cycle;Max_cycle;Signal;HPM_P1;HPM_P2
2021/12/03 00:00:36;;;;;;;3.03;1.60;;;5.70;69.10;;;;;;5034529;28;20033;-73
2021/12/03 00:03:02;;;;;;;4.37;1.53;;;5.70;68.90;;;;;;5042179;28;20516;-73
2021/12/03 00:05:28;;;;;;;2.50;1.35;;;5.70;68.90;;;;;;5045524;28;20036;-73
2021/12/03 00:07:53;;;;;;;4.55;1.58;;;5.60;68.90;;;;;;5043235;28;20029;-74
2021/12/03 00:10:23;;;;;;;3.15;1.50;;;5.60;69.10;;;;;;5042501;28;20037;-73
2021/12/03 00:12:50;;;;;;;3.70;1.90;;;5.60;69.40;;;;;;5039970;28;20032;-73
2021/12/03 00:15:16;;;;;;;4.15;1.50;;;5.60;68.80;;;;;;5042181;28;20037;-73
2021/12/03 00:17:42;;;;;;;4.22;1.50;;;5.60;68.90;;;;;;5046398;28;20028;-73
2021/12/03 00:20:12;;;;;;;3.50;1.50;;;5.60;69.00;;;;;;5045492;28;20039;-73
2021/12/03 00:22:38;;;;;;;5.60;1.80;;;5.60;68.60;;;;;;5042238;28;20029;-73
2021/12/03 00:25:04;;;;;;;4.80;1.85;;;5.60;68.90;;;;;;5045217;28;20040;-73
2021/12/03 00:27:30;;;;;;;4.32;1.60;;;5.60;69.30;;;;;;5037445;28;20029;-73
2021/12/03 00:29:56;;;;;;;6.47;1.92;;;5.60;69.60;;;;;;5036016;28;20532;-73
2021/12/03 00:32:22;;;;;;;4.13;1.60;;;5.70;69.30;;;;;;5041107;28;20044;-73
2021/12/03 00:34:47;;;;;;;3.35;1.55;;;5.60;69.70;;;;;;5039285;28;20920;-73
2021/12/03 00:37:13;;;;;;;4.80;1.77;;;5.60;70.00;;;;;;5039936;28;20036;-73
2021/12/03 00:39:39;;;;;;;2.20;1.40;;;5.60;70.20;;;;;;5037689;28;20036;-73
2021/12/03 00:42:05;;;;;;;5.03;1.67;;;5.60;70.30;;;;;;5037002;28;20557;-73
2021/12/03 00:44:31;;;;;;;4.45;1.48;;;5.50;70.40;;;;;;5036917;28;20136;-73
2021/12/03 00:46:58;;;;;;;3.88;1.73;;;5.60;71.10;;;;;;5036721;28;20216;-73
2021/12/03 00:49:25;;;;;;;3.13;1.50;;;5.50;70.80;;;;;;5038459;28;20029;-73
2021/12/03 00:51:51;;;;;;;7.53;1.80;;;5.50;71.00;;;;;;5038419;28;20032;-74
2021/12/03 00:54:17;;;;;;;3.22;1.65;;;5.50;71.30;;;;;;5044577;28;20029;-74
2021/12/03 00:56:43;;;;;;;3.58;1.70;;;5.60;71.60;;;;;;5046313;28;20120;-74
2021/12/03 00:59:08;;;;;;;2.78;1.50;;;5.60;71.20;;;;;;5055529;28;20119;-73
2021/12/03 01:01:35;;;;;;;7.00;1.80;;;5.60;71.60;;;;;;5041401;28;20017;-74
2021/12/03 01:04:01;;;;;;;4.57;1.83;;;5.50;72.00;;;;;;5041315;28;20497;-73
2021/12/03 01:06:27;;;;;;;6.72;1.80;;;5.50;72.10;;;;;;5037161;28;21119;-74
2021/12/03 01:08:52;;;;;;;2.60;1.42;;;5.50;72.40;;;;;;5039786;28;20544;-74
2021/12/03 01:11:18;;;;;;;4.60;1.77;;;5.50;72.60;;;;;;5040887;28;20056;-75
2021/12/03 01:13:45;;;;;;;5.05;1.60;;;5.50;72.00;;;;;;5040812;28;20060;-74
2021/12/03 01:16:13;;;;;;;3.80;1.65;;;5.50;72.40;;;;;;5047792;28;20025;-74
2021/12/03 01:18:40;;;;;;;4.13;1.58;;;5.50;72.60;;;;;;5046037;28;20504;-73
2021/12/03 01:21:07;;;;;;;3.83;1.60;;;5.50;72.80;;;;;;5042947;28;20036;-74
2021/12/03 01:23:33;;;;;;;4.30;1.70;;;5.50;72.70;;;;;;5044335;28;20043;-74
2021/12/03 01:25:59;;;;;;;5.25;1.60;;;5.50;72.60;;;;;;5045296;28;20013;-74
2021/12/03 01:28:26;;;;;;;3.90;1.65;;;5.50;72.60;;;;;;5044384;28;20083;-74
2021/12/03 01:30:54;;;;;;;4.97;1.70;;;5.50;73.20;;;;;;5050034;28;20486;-73
2021/12/03 01:33:19;;;;;;;2.80;1.70;;;5.40;73.10;;;;;;5050372;28;20129;-73
2021/12/03 01:35:45;;;;;;;3.17;1.42;;;5.40;73.60;;;;;;5050956;28;20128;-74
2021/12/03 01:38:11;;;;;;;4.43;2.08;;;5.40;73.70;;;;;;5051023;28;20503;-74
2021/12/03 01:40:39;;;;;;;8.25;1.80;;;5.40;73.70;;;;;;5052207;28;20047;-74
2021/12/03 01:43:07;;;;;;;5.00;1.70;;;5.40;73.70;;;;;;5054527;28;20485;-73
2021/12/03 01:45:36;;;;;;;4.93;1.80;;;5.40;73.70;;;;;;5054368;28;20106;-73
2021/12/03 01:48:05;;;;;;;3.80;1.70;;;5.30;73.60;;;;;;5053166;28;20070;-74
2021/12/03 01:50:40;;;;;;;4.88;1.70;;;5.40;73.70;;;;;;5054552;28;20029;-74
2021/12/03 01:53:07;;;;;;;3.88;1.50;;;5.30;73.60;;;;;;5053320;28;20025;-74
2021/12/03 01:55:34;;;;;;;5.43;1.50;;;5.40;74.10;;;;;;5052543;28;20029;-74
2021/12/03 01:57:59;;;;;;;6.85;2.00;;;5.30;74.00;;;;;;5054361;28;20116;-74
2021/12/03 02:00:40;;;;;;;6.03;1.80;;;5.30;74.20;;;;;;5053940;28;20549;-73
2021/12/03 02:03:07;;;;;;;3.22;1.58;;;5.20;74.20;;;;;;5049964;28;20036;-74
2021/12/03 02:05:34;;;;;;;4.35;1.77;;;5.30;74.60;;;;;;5054357;28;20272;-73
2021/12/03 02:07:59;;;;;;;5.53;1.70;;;5.30;74.10;;;;;;5054639;28;20051;-74
2021/12/03 02:10:25;;;;;;;3.90;2.00;;;5.30;74.50;;;;;;5053926;28;20071;-73
2021/12/03 02:12:51;;;;;;;3.55;1.80;;;5.30;74.60;;;;;;5053950;28;20507;-74
2021/12/03 02:15:18;;;;;;;4.28;1.55;;;5.30;74.50;;;;;;5053848;28;20029;-74
2021/12/03 02:17:44;;;;;;;4.88;1.90;;;5.30;74.30;;;;;;5054037;28;22514;-74
2021/12/03 02:20:11;;;;;;;4.07;1.65;;;5.30;74.00;;;;;;5054603;28;20104;-74
2021/12/03 02:22:38;;;;;;;4.40;1.80;;;5.30;74.20;;;;;;5054127;28;20086;-74
2021/12/03 02:25:07;;;;;;;4.47;2.10;;;5.30;73.90;;;;;;5053543;28;20113;-74
2021/12/03 02:27:33;;;;;;;7.18;2.03;;;5.30;73.90;;;;;;5053719;28;20023;-73
2021/12/03 02:29:58;;;;;;;5.35;2.00;;;5.30;73.30;;;;;;5053514;28;20029;-73
2021/12/03 02:32:24;;;;;;;3.90;1.70;;;5.30;73.60;;;;;;5053382;28;20025;-73
2021/12/03 02:34:50;;;;;;;3.80;1.80;;;5.30;73.70;;;;;;5054001;28;20051;-74
2021/12/03 02:37:16;;;;;;;5.38;1.98;;;5.30;73.70;;;;;;5053142;28;20029;-74
2021/12/03 02:39:42;;;;;;;6.53;1.88;;;5.30;73.70;;;;;;5053436;28;20028;-74
2021/12/03 02:42:08;;;;;;;3.92;1.92;;;5.30;73.70;;;;;;5054011;28;20040;-73
2021/12/03 02:44:34;;;;;;;2.45;1.63;;;5.30;74.00;;;;;;5053067;28;20366;-73
2021/12/03 02:46:59;;;;;;;3.67;1.80;;;5.30;74.10;;;;;;5053835;28;20036;-74
2021/12/03 02:49:25;;;;;;;5.57;1.80;;;5.30;74.10;;;;;;5038864;28;20040;-73
2021/12/03 02:51:50;;;;;;;5.43;1.70;;;5.20;74.30;;;;;;5053178;28;20075;-73
2021/12/03 02:54:16;;;;;;;3.95;1.73;;;5.20;73.80;;;;;;5053391;28;20513;-74
2021/12/03 02:56:42;;;;;;;4.35;1.70;;;5.30;73.60;;;;;;5053543;28;20071;-74
2021/12/03 02:59:07;;;;;;;6.32;1.92;;;5.30;74.10;;;;;;5053634;28;20390;-73
2021/12/03 03:01:33;;;;;;;4.20;1.60;;;5.30;73.50;;;;;;5053145;28;20032;-74
2021/12/03 03:03:59;;;;;;;4.80;1.90;;;5.30;73.60;;;;;;5051780;28;20051;-74
2021/12/03 03:06:25;;;;;;;5.05;1.73;;;5.30;73.40;;;;;;5053248;28;20029;-73
2021/12/03 03:08:52;;;;;;;4.07;1.88;;;5.20;74.00;;;;;;5052989;28;20377;-74
2021/12/03 03:11:21;;;;;;;5.78;1.75;;;5.20;74.00;;;;;;5046175;28;20542;-74
2021/12/03 03:13:46;;;;;;;6.60;1.88;;;5.20;73.60;;;;;;5052096;28;20086;-74
2021/12/03 03:16:15;;;;;;;4.40;1.65;;;5.30;73.60;;;;;;5053480;28;20115;-73
2021/12/03 03:18:42;;;;;;;5.65;1.90;;;5.30;73.60;;;;;;5052648;28;20025;-74
2021/12/03 03:21:08;;;;;;;3.30;1.83;;;5.30;73.70;;;;;;5052601;28;20040;-74
2021/12/03 03:23:35;;;;;;;4.53;1.90;;;5.30;74.00;;;;;;5053161;28;20430;-74
2021/12/03 03:26:02;;;;;;;6.50;1.80;;;5.30;74.40;;;;;;5053154;28;20401;-74
2021/12/03 03:28:29;;;;;;;7.75;1.85;;;5.30;73.60;;;;;;5051947;28;20032;-74
2021/12/03 03:30:59;;;;;;;4.20;1.77;;;5.30;74.00;;;;;;5052825;28;20108;-74
2021/12/03 03:33:26;;;;;;;8.10;2.10;;;5.30;74.40;;;;;;5052688;28;20029;-74
2021/12/03 03:35:52;;;;;;;4.25;1.70;;;5.20;74.00;;;;;;5044559;28;20055;-74
2021/12/03 03:38:18;;;;;;;5.07;1.77;;;5.20;73.70;;;;;;5053045;28;20461;-74
2021/12/03 03:40:46;;;;;;;3.65;1.70;;;5.20;74.40;;;;;;5052252;28;20051;-74
2021/12/03 03:43:11;;;;;;;3.45;1.60;;;5.20;74.40;;;;;;5052227;28;20490;-74
2021/12/03 03:45:40;;;;;;;5.80;2.00;;;5.20;74.80;;;;;;5052662;28;20032;-74
2021/12/03 03:48:07;;;;;;;6.45;2.00;;;5.20;75.20;;;;;;5052108;28;20025;-74
2021/12/03 03:50:33;;;;;;;3.40;1.50;;;5.30;74.60;;;;;;5044549;28;20398;-74
2021/12/03 03:52:59;;;;;;;5.07;1.90;;;5.20;74.70;;;;;;5052767;28;20028;-74
2021/12/03 03:55:25;;;;;;;3.45;1.70;;;5.20;75.20;;;;;;5052093;28;20052;-74
2021/12/03 03:57:53;;;;;;;4.70;1.80;;;5.20;74.90;;;;;;5051454;28;20132;-74
2021/12/03 04:00:23;;;;;;;3.55;1.70;;;5.20;75.10;;;;;;5052594;28;20029;-74
2021/12/03 04:02:49;;;;;;;3.80;1.77;;;5.20;75.20;;;;;;5051247;28;20541;-74
2021/12/03 04:05:15;;;;;;;5.93;1.80;;;5.20;75.50;;;;;;5052701;28;20101;-74
2021/12/03 04:07:41;;;;;;;5.38;2.10;;;5.20;75.20;;;;;;5051836;28;20036;-73
2021/12/03 04:10:08;;;;;;;3.95;1.80;;;5.10;76.10;;;;;;5051536;28;20037;-74
2021/12/03 04:12:34;;;;;;;7.57;2.20;;;5.10;75.90;;;;;;5051811;28;20028;-74
2021/12/03 04:15:00;;;;;;;5.47;2.10;;;5.10;75.60;;;;;;5050773;28;20045;-74
2021/12/03 04:17:26;;;;;;;9.25;2.20;;;5.20;74.80;;;;;;5051694;28;20025;-73
2021/12/03 04:19:52;;;;;;;3.72;2.00;;;5.20;75.00;;;;;;5051291;28;20039;-73
2021/12/03 04:22:23;;;;;;;4.25;2.00;;;5.20;74.90;;;;;;5051726;28;20033;-73
2021/12/03 04:24:50;;;;;;;6.25;2.10;;;5.20;74.30;;;;;;5051149;28;20032;-74
2021/12/03 04:27:16;;;;;;;4.03;2.00;;;5.20;74.40;;;;;;5051901;28;20021;-73
2021/12/03 04:29:42;;;;;;;5.85;1.98;;;5.20;74.70;;;;;;5051548;28;20029;-74
2021/12/03 04:32:08;;;;;;;4.15;1.90;;;5.20;74.50;;;;;;5051947;28;20060;-74
2021/12/03 04:34:35;;;;;;;5.15;1.92;;;5.30;74.40;;;;;;5050960;28;20465;-74
2021/12/03 04:37:01;;;;;;;6.88;1.92;;;5.30;74.00;;;;;;5044763;28;20116;-73
2021/12/03 04:39:26;;;;;;;6.72;1.98;;;5.30;74.00;;;;;;5050994;28;20108;-74
2021/12/03 04:41:52;;;;;;;8.20;2.20;;;5.30;73.50;;;;;;5050520;28;20116;-74
2021/12/03 04:44:18;;;;;;;3.70;1.80;;;5.30;73.90;;;;;;5051858;28;20029;-74
2021/12/03 04:46:43;;;;;;;6.72;1.75;;;5.30;74.10;;;;;;5050934;28;20059;-74
2021/12/03 04:49:09;;;;;;;5.82;1.90;;;5.20;73.80;;;;;;5050988;28;20048;-74
2021/12/03 04:51:35;;;;;;;3.30;1.80;;;5.20;74.00;;;;;;5051512;28;20389;-74
2021/12/03 04:54:01;;;;;;;3.83;2.50;;;5.20;74.00;;;;;;5050768;28;20033;-74
2021/12/03 04:56:27;;;;;;;6.05;2.20;;;5.20;73.90;;;;;;5051371;28;20505;-74
2021/12/03 04:58:53;;;;;;;2.70;1.40;;;5.10;74.30;;;;;;5051134;28;20017;-74
2021/12/03 05:01:18;;;;;;;5.25;1.95;;;5.10;75.10;;;;;;5050742;28;20044;-73
2021/12/03 05:03:44;;;;;;;3.67;1.90;;;5.10;75.20;;;;;;5050858;28;20020;-73
2021/12/03 05:06:15;;;;;;;4.35;1.70;;;5.10;75.30;;;;;;5044768;28;20438;-74
2021/12/03 05:08:41;;;;;;;4.88;2.20;;;5.10;75.70;;;;;;5050273;28;20033;-74
2021/12/03 05:11:06;;;;;;;4.35;1.80;;;5.10;75.00;;;;;;5051746;28;20021;-74
2021/12/03 05:13:35;;;;;;;4.00;1.70;;;5.10;75.00;;;;;;5049977;28;20040;-74
2021/12/03 05:16:02;;;;;;;5.60;2.45;;;5.00;75.80;;;;;;5050991;28;20037;-73
2021/12/03 05:18:29;;;;;;;4.25;2.10;;;5.00;75.90;;;;;;5050615;28;20029;-74
2021/12/03 05:20:57;;;;;;;4.95;1.77;;;5.00;75.60;;;;;;5050814;28;20032;-74
2021/12/03 05:23:24;;;;;;;6.90;2.00;;;5.00;76.10;;;;;;5047076;28;20118;-74
2021/12/03 05:25:52;;;;;;;4.25;1.80;;;5.00;75.40;;;;;;5051073;28;20029;-74
2021/12/03 05:28:17;;;;;;;3.15;1.95;;;5.00;75.80;;;;;;5050420;28;20021;-74
2021/12/03 05:30:44;;;;;;;3.30;1.73;;;5.00;76.10;;;;;;5050442;28;20032;-74
2021/12/03 05:33:10;;;;;;;4.65;1.77;;;4.90;75.70;;;;;;5032736;28;20503;-73
2021/12/03 05:35:36;;;;;;;4.05;1.80;;;5.00;75.90;;;;;;5050630;28;20045;-73
2021/12/03 05:38:03;;;;;;;5.03;1.85;;;5.00;75.90;;;;;;5032887;28;20112;-74
2021/12/03 05:40:29;;;;;;;4.07;1.88;;;5.00;76.30;;;;;;5050696;28;20024;-74
2021/12/03 05:42:56;;;;;;;4.63;1.92;;;5.00;77.10;;;;;;5048822;28;20025;-73
2021/12/03 05:45:27;;;;;;;4.40;1.83;;;5.00;76.30;;;;;;5044030;28;20035;-73
2021/12/03 05:47:54;;;;;;;3.42;1.85;;;5.00;76.30;;;;;;5048255;28;20037;-74
2021/12/03 05:50:20;;;;;;;4.55;1.80;;;4.90;76.30;;;;;;5051158;28;20045;-72
2021/12/03 05:52:47;;;;;;;3.78;1.73;;;4.90;77.00;;;;;;5049997;28;20104;-74
2021/12/03 05:55:14;;;;;;;7.07;2.22;;;4.90;76.80;;;;;;5050267;28;20432;-73
2021/12/03 05:57:41;;;;;;;4.38;1.90;;;4.90;76.90;;;;;;5050172;28;20020;-72
2021/12/03 06:00:20;;;;;;;4.57;2.10;;;4.90;77.50;;;;;;5048971;28;20044;-72
2021/12/03 06:02:46;;;;;;;7.03;1.90;;;4.90;76.80;;;;;;5050449;28;20430;-73
2021/12/03 06:05:14;;;;;;;5.88;2.05;;;4.90;77.00;;;;;;5049827;28;20129;-73
2021/12/03 06:07:40;;;;;;;5.00;2.08;;;4.90;77.10;;;;;;5049967;28;20025;-73
2021/12/03 06:10:06;;;;;;;5.30;2.10;;;4.80;77.80;;;;;;5050054;28;20075;-73
2021/12/03 06:12:32;;;;;;;3.42;1.80;;;4.80;77.70;;;;;;5050089;28;20021;-73
2021/12/03 06:14:58;;;;;;;5.65;1.90;;;4.80;78.10;;;;;;5049905;28;20033;-73
2021/12/03 06:17:23;;;;;;;5.47;1.80;;;4.80;77.60;;;;;;5051370;28;20449;-73
2021/12/03 06:19:50;;;;;;;8.02;1.98;;;4.80;78.30;;;;;;5050118;28;20059;-73
2021/12/03 06:22:15;;;;;;;3.95;1.98;;;4.80;78.10;;;;;;5049760;28;20382;-73
2021/12/03 06:24:41;;;;;;;5.35;1.90;;;4.70;78.50;;;;;;5050322;28;20036;-73
2021/12/03 06:27:07;;;;;;;6.88;2.38;;;4.70;78.40;;;;;;5044186;28;20116;-73
2021/12/03 06:29:33;;;;;;;9.45;2.40;;;4.70;78.90;;;;;;5053904;28;20039;-73
2021/12/03 06:31:59;;;;;;;6.82;2.10;;;4.60;79.00;;;;;;5054162;28;20323;-73
2021/12/03 06:34:25;;;;;;;4.95;2.42;;;4.70;78.50;;;;;;5053568;28;20094;-73
2021/12/03 06:36:50;;;;;;;7.63;2.42;;;4.70;78.80;;;;;;5053343;28;20021;-73
2021/12/03 06:39:16;;;;;;;4.38;2.30;;;4.70;78.60;;;;;;5045033;28;20036;-73
2021/12/03 06:41:42;;;;;;;6.53;2.72;;;4.60;79.70;;;;;;5036998;28;20025;-73
2021/12/03 06:44:08;;;;;;;4.20;2.90;;;4.50;79.70;;;;;;5053883;28;20032;-74
2021/12/03 06:46:35;;;;;;;5.28;2.20;;;4.50;79.40;;;;;;5053846;28;20025;-74
2021/12/03 06:49:01;;;;;;;4.40;2.15;;;4.50;80.10;;;;;;5053121;28;20733;-73
2021/12/03 06:51:28;;;;;;;7.50;2.40;;;4.60;79.60;;;;;;5053059;28;20025;-74
2021/12/03 06:54:03;;;;;;;4.72;2.10;;;4.60;79.70;;;;;;5035410;28;20037;-74
2021/12/03 06:56:48;;;;;;;8.18;2.65;;;4.60;79.70;;;;;;5048086;28;20025;-75
2021/12/03 06:59:17;;;;;;;3.60;2.22;;;4.60;79.20;;;;;;5051527;28;20033;-74
2021/12/03 07:01:43;;;;;;;6.28;2.50;;;4.70;79.20;;;;;;5052077;28;20037;-74
2021/12/03 07:04:09;;;;;;;4.00;2.10;;;4.70;78.80;;;;;;5051374;28;20056;-74
2021/12/03 07:06:35;;;;;;;6.82;2.63;;;4.80;77.70;;;;;;5052967;28;20436;-74
2021/12/03 07:09:01;;;;;;;5.85;2.30;;;4.90;76.80;;;;;;5052592;28;20033;-74
2021/12/03 07:11:26;;;;;;;5.53;2.30;;;5.00;77.40;;;;;;5053327;28;20057;-74
2021/12/03 07:13:52;;;;;;;8.32;2.38;;;5.00;76.90;;;;;;5052784;28;20033;-74
2021/12/03 07:16:18;;;;;;;4.10;2.10;;;5.00;76.30;;;;;;5051261;28;20092;-74
2021/12/03 07:18:43;;;;;;;3.60;1.80;;;4.90;76.50;;;;;;5052165;28;20094;-74
2021/12/03 07:21:10;;;;;;;5.35;1.85;;;5.00;77.30;;;;;;5052738;28;20033;-74
2021/12/03 07:23:36;;;;;;;6.18;2.63;;;4.90;77.00;;;;;;5052967;28;20059;-74
2021/12/03 07:26:02;;;;;;;8.98;2.60;;;4.80;77.10;;;;;;5052688;28;20025;-73
2021/12/03 07:28:29;;;;;;;5.80;1.80;;;4.90;78.00;;;;;;5048447;28;20383;-73
2021/12/03 07:30:56;;;;;;;4.10;1.75;;;4.90;76.00;;;;;;5048579;28;20024;-74
2021/12/03 07:33:22;;;;;;;6.60;2.20;;;4.90;76.80;;;;;;5052068;28;20115;-73
2021/12/03 07:35:48;;;;;;;4.20;2.08;;;5.00;76.50;;;;;;5052094;28;20052;-74
2021/12/03 07:38:17;;;;;;;3.72;2.00;;;5.10;76.00;;;;;;5051002;28;20508;-74
2021/12/03 07:40:43;;;;;;;3.42;2.00;;;5.10;76.40;;;;;;5052219;28;20032;-74
2021/12/03 07:43:09;;;;;;;5.07;1.98;;;5.10;75.90;;;;;;5052789;28;20043;-74
2021/12/03 07:45:36;;;;;;;7.25;1.77;;;5.10;75.80;;;;;;5051980;28;20025;-74
2021/12/03 07:48:01;;;;;;;5.15;2.20;;;5.20;76.20;;;;;;5051742;28;20064;-74
2021/12/03 07:50:27;;;;;;;6.38;2.25;;;5.30;75.80;;;;;;5049736;28;20496;-74
2021/12/03 07:52:53;;;;;;;6.95;2.38;;;5.40;75.20;;;;;;5052144;28;20029;-75
2021/12/03 07:55:19;;;;;;;5.10;2.05;;;5.40;75.00;;;;;;5044933;28;20115;-74
2021/12/03 07:57:45;;;;;;;6.47;2.10;;;5.50;74.60;;;;;;5047460;28;20402;-75
2021/12/03 08:00:11;;;;;;;4.93;2.00;;;5.60;74.30;;;;;;5048007;28;20037;-75
2021/12/03 08:02:37;;;;;;;6.65;2.40;;;5.70;73.50;;;;;;5047816;28;20466;-75
2021/12/03 08:05:03;;;;;;;4.45;2.35;;;5.90;73.00;;;;;;5047873;28;20717;-76
2021/12/03 08:07:30;;;;;;;4.45;1.83;;;6.00;72.30;;;;;;5047366;28;20033;-76
2021/12/03 08:09:56;;;;;;;6.80;2.20;;;6.10;71.30;;;;;;5047929;28;20085;-75
2021/12/03 08:12:22;;;;;;;3.28;1.60;;;6.30;70.50;;;;;;5048106;28;20119;-78
2021/12/03 08:14:47;;;;;;;4.65;2.20;;;6.50;69.90;;;;;;5051318;28;20041;-79
2021/12/03 08:17:13;;;;;;;4.80;1.98;;;6.70;69.60;;;;;;5051839;28;20044;-77
2021/12/03 08:19:39;;;;;;;6.05;2.10;;;6.90;69.50;;;;;;5052133;28;20401;-77
2021/12/03 08:22:05;;;;;;;3.90;1.80;;;7.20;67.90;;;;;;5051512;28;20028;-78
2021/12/03 08:24:31;;;;;;;5.68;1.98;;;9.00;65.60;;;;;;5051491;28;20031;-78
2021/12/03 08:26:57;;;;;;;4.22;1.58;;;11.10;60.20;;;;;;5051738;28;20029;-78
2021/12/03 08:29:22;;;;;;;4.75;1.60;;;10.30;59.60;;;;;;5051937;28;20025;-78
2021/12/03 08:31:48;;;;;;;5.22;2.13;;;9.50;61.30;;;;;;5051287;28;20078;-78
2021/12/03 08:34:14;;;;;;;4.68;1.85;;;9.20;62.20;;;;;;5051183;28;20037;-78
2021/12/03 08:36:40;;;;;;;6.93;1.73;;;9.10;62.60;;;;;;5051591;28;20025;-78
2021/12/03 08:39:07;;;;;;;4.40;1.88;;;9.20;62.50;;;;;;5051405;28;20486;-71
2021/12/03 08:41:34;;;;;;;6.43;1.98;;;9.20;62.20;;;;;;5051380;28;20028;-77
2021/12/03 08:44:02;;;;;;;4.85;2.03;;;9.40;61.90;;;;;;5052127;28;20043;-78
2021/12/03 08:46:33;;;;;;;4.50;1.90;;;9.30;61.30;;;;;;5051037;28;20033;-77
2021/12/03 08:49:26;;;;;;;3.58;1.73;;;9.40;60.80;;;;;;5051120;28;20029;-78
2021/12/03 08:57:23;;;;;;;9.68;2.10;;;9.60;61.60;;;;;;5007198;28;20042;-77
2021/12/03 08:59:51;;;;;;;5.85;2.10;;;9.80;61.10;;;;;;5009844;28;20046;-78
2021/12/03 09:02:17;;;;;;;8.02;2.42;;;9.70;60.60;;;;;;5007325;28;20041;-77
2021/12/03 09:04:44;;;;;;;5.65;1.85;;;9.80;60.80;;;;;;5007005;28;20115;-77
2021/12/03 09:07:10;;;;;;;4.95;1.92;;;9.80;60.40;;;;;;5006735;28;20087;-77
2021/12/03 09:09:36;;;;;;;6.10;2.00;;;10.10;60.20;;;;;;5006853;28;20041;-77
2021/12/03 09:12:02;;;;;;;6.40;1.88;;;10.10;60.10;;;;;;5008842;28;20071;-77
2021/12/03 09:17:46;;;;;;;5.75;2.10;;;10.40;59.50;;;;;;5007029;28;20029;-77
2021/12/03 09:22:18;;;;;;;4.25;1.80;;;10.60;59.00;;;;;;5006502;28;20587;-76
2021/12/03 09:24:43;;;;;;;7.38;2.00;;;10.80;59.00;;;;;;5008795;28;20034;-76
2021/12/03 09:27:12;;;;;;;8.05;2.45;;;11.10;58.70;;;;;;5007223;28;20488;-77
2021/12/03 09:29:37;;;;;;;6.18;2.20;;;11.30;59.00;;;;;;5008472;28;20091;-76
2021/12/03 09:32:03;;;;;;;5.38;2.25;;;11.40;57.90;;;;;;5033784;28;20076;-76
2021/12/03 09:34:31;;;;;;;7.60;2.33;;;11.50;57.70;;;;;;5050414;28;20065;-77
2021/12/03 09:36:57;;;;;;;5.00;1.98;;;11.50;57.70;;;;;;5050530;28;20112;-76
2021/12/03 09:39:24;;;;;;;7.75;2.17;;;11.50;57.50;;;;;;5050655;28;20033;-76
2021/12/03 09:41:55;;;;;;;6.18;1.90;;;11.80;57.90;;;;;;5050697;28;20037;-76
2021/12/03 09:44:22;;;;;;;6.15;2.25;;;11.70;57.10;;;;;;5050996;28;20478;-76
2021/12/03 09:46:48;;;;;;;5.03;2.10;;;11.90;57.70;;;;;;5050516;28;20029;-76
2021/12/03 09:49:26;;;;;;;4.10;1.98;;;12.00;57.80;;;;;;5050910;28;20029;-76
2021/12/03 09:56:50;;;;;;;4.57;1.60;;;12.00;55.40;;;;;;5050078;28;20051;-76
2021/12/03 10:02:17;;;;;;;5.40;1.42;;;12.20;55.20;;;;;;5054612;28;20040;-76
2021/12/03 10:13:03;;;;;;;3.22;1.35;;;12.20;54.60;;;;;;5053828;28;20460;-76
2021/12/03 10:15:32;;;;;;;7.40;1.95;;;12.20;54.60;;;;;;5054424;28;20090;-76
2021/12/03 10:20:47;;;;;;;3.95;1.50;;;12.40;54.30;;;;;;5054669;28;20075;-77
2021/12/03 10:34:14;;;;;;;;;;;12.50;52.80;;;;;;5054185;28;20099;-76
2021/12/03 10:39:24;;;;;;;4.40;1.80;;;12.70;52.40;;;;;;5053848;28;20037;-76
2021/12/03 10:50:41;;;;;;;5.13;1.90;;;13.00;52.50;;;;;;5050619;28;20035;-77
2021/12/03 10:53:20;;;;;;;5.55;1.77;;;13.00;53.00;;;;;;5052014;28;20025;-77
2021/12/03 13:30:55;;;;;;;5.13;2.00;;;16.70;44.60;;;;;;5047989;28;20276;-78
2021/12/03 14:37:55;;;;;;;6.05;2.03;;;24.20;36.00;;;;;;5042184;28;20432;-73
2021/12/03 14:43:24;;;;;;;6.93;2.70;;;22.00;37.80;;;;;;5043927;28;20493;-73
2021/12/03 14:49:49;;;;;;;5.80;2.05;;;20.50;38.90;;;;;;4999918;28;20069;-72
2021/12/03 14:51:59;;;;;;;6.93;1.52;;;20.50;38.00;;;;;;4992833;28;20101;-72
2021/12/03 15:00:46;;;;;;;5.07;1.60;;;18.50;39.60;;;;;;5000063;28;20088;-72
2021/12/03 15:08:33;;;;;;;4.22;1.98;;;16.90;43.50;;;;;;5003049;28;20030;-72
2021/12/03 15:19:16;;;;;;;10.05;2.55;;;14.60;47.90;;;;;;4997876;28;20092;-72
2021/12/03 16:09:44;;;;;;;13.35;6.63;;;11.00;56.00;;;;;;5052089;28;20107;-73
2021/12/03 16:11:59;;;;;;;11.07;5.88;;;10.80;55.90;;;;;;5051422;28;20048;-73
2021/12/03 16:14:43;;;;;;;8.18;3.70;;;10.60;56.70;;;;;;5050899;28;20029;-74
2021/12/03 16:17:21;;;;;;;7.72;3.00;;;10.40;56.70;;;;;;5049285;28;20405;-74
2021/12/03 16:25:13;;;;;;;8.85;3.17;;;10.30;57.50;;;;;;5052160;28;20493;-75
2021/12/03 16:51:57;;;;;;;;;;;9.20;62.60;;;;;;4963986;28;20105;-73
2021/12/03 16:57:18;;;;;;;13.20;8.10;;;9.20;61.70;;;;;;4943640;28;20046;-73
2021/12/03 16:59:46;;;;;;;13.25;6.32;;;9.10;61.50;;;;;;4966940;28;20022;-73
2021/12/03 17:02:28;;;;;;;30.75;16.90;;;8.80;62.40;;;;;;4967624;28;20026;-74
2021/12/03 17:13:32;;;;;;;;;;;8.90;61.90;;;;;;4964021;28;20118;-73
2021/12/03 17:45:36;;;;;;;20.17;9.30;;;8.40;64.30;;;;;;5050704;28;20552;-75
2021/12/03 17:48:13;;;;;;;19.75;9.85;;;8.30;65.30;;;;;;5050054;28;20021;-74
2021/12/03 17:58:39;;;;;;;24.65;13.23;;;8.10;66.30;;;;;;5049997;28;20359;-77
2021/12/03 18:01:17;;;;;;;22.52;12.07;;;8.10;67.50;;;;;;5050298;28;20017;-77
2021/12/03 18:44:22;;;;;;;49.42;27.92;;;7.70;71.80;;;;;;5053805;28;20036;-76
2021/12/03 18:51:49;;;;;;;43.92;24.55;;;7.10;75.90;;;;;;5053244;28;20032;-75
2021/12/03 18:54:30;;;;;;;47.35;22.58;;;7.10;75.60;;;;;;5053350;28;20033;-76
2021/12/03 18:57:02;;;;;;;49.38;25.98;;;7.00;76.00;;;;;;5052573;28;20421;-76
2021/12/03 18:59:28;;;;;;;52.22;28.15;;;7.00;76.00;;;;;;5050498;28;20449;-74
2021/12/03 19:01:54;;;;;;;40.22;23.85;;;6.90;75.60;;;;;;5052994;28;20037;-77
2021/12/03 19:04:28;;;;;;;31.70;19.55;;;7.00;75.30;;;;;;5053224;28;20397;-78
2021/12/03 19:07:03;;;;;;;30.35;16.58;;;7.00;74.10;;;;;;5052875;28;20354;-77
2021/12/03 19:09:36;;;;;;;27.13;15.85;;;7.20;73.50;;;;;;5052564;28;20554;-77
2021/12/03 19:12:10;;;;;;;32.45;17.48;;;7.30;72.40;;;;;;5053766;28;20112;-76
2021/12/03 19:14:47;;;;;;;45.88;29.00;;;7.50;72.20;;;;;;5053142;28;20047;-76
2021/12/03 19:17:12;;;;;;;54.58;32.78;;;7.60;71.70;;;;;;5052066;28;20076;-78
2021/12/03 19:19:43;;;;;;;47.95;29.95;;;7.60;72.00;;;;;;5052919;28;20053;-78
2021/12/03 19:22:09;;;;;;;40.30;26.00;;;7.60;72.00;;;;;;5052956;28;20548;-76
2021/12/03 19:24:35;;;;;;;35.72;23.05;;;7.60;72.40;;;;;;5052876;28;20017;-74
2021/12/03 19:27:02;;;;;;;34.15;22.00;;;7.70;71.40;;;;;;5052876;28;20029;-76
2021/12/03 19:29:30;;;;;;;34.08;20.27;;;7.70;71.20;;;;;;5053149;28;20078;-77
2021/12/03 19:31:56;;;;;;;28.70;17.00;;;7.70;73.50;;;;;;5052376;28;20017;-77
2021/12/03 19:34:26;;;;;;;26.92;17.42;;;7.70;73.90;;;;;;5051639;28;20033;-75
2021/12/03 19:36:53;;;;;;;34.55;18.45;;;7.50;74.90;;;;;;5052259;28;20162;-76
2021/12/03 19:39:20;;;;;;;31.38;19.15;;;7.60;73.40;;;;;;5045744;28;20060;-74
2021/12/03 19:44:18;;;;;;;30.58;17.52;;;7.50;77.00;;;;;;5052886;28;20055;-76
2021/12/03 19:46:48;;;;;;;37.35;22.05;;;7.50;75.30;;;;;;5052421;28;20106;-75
2021/12/03 19:49:38;;;;;;;35.88;20.52;;;7.40;76.10;;;;;;5034505;28;20028;-76
2021/12/03 19:52:24;;;;;;;29.50;16.88;;;7.30;77.50;;;;;;5052310;28;20037;-75
2021/12/03 19:54:52;;;;;;;25.65;15.73;;;7.10;78.20;;;;;;5052085;28;20521;-75
2021/12/03 19:57:18;;;;;;;30.95;17.85;;;7.00;79.60;;;;;;5051846;28;20052;-75
2021/12/03 19:59:44;;;;;;;24.30;14.32;;;7.00;78.50;;;;;;5051900;28;20438;-76
2021/12/03 20:02:10;;;;;;;29.60;14.23;;;7.10;78.90;;;;;;5052917;28;20040;-76
2021/12/03 20:04:35;;;;;;;24.00;11.50;;;7.20;78.90;;;;;;5051684;28;20120;-75
2021/12/03 20:07:01;;;;;;;26.25;11.63;;;7.40;76.90;;;;;;5051283;28;20033;-75
2021/12/03 20:09:40;;;;;;;20.85;10.27;;;7.50;76.30;;;;;;5052611;28;20095;-75
2021/12/03 20:12:11;;;;;;;16.90;9.50;;;7.50;76.10;;;;;;5052034;28;20092;-75
2021/12/03 20:14:37;;;;;;;18.58;10.98;;;7.40;77.20;;;;;;5052006;28;20045;-76
2021/12/03 20:17:09;;;;;;;25.77;13.43;;;7.40;80.50;;;;;;5052295;28;20021;-77
2021/12/03 20:19:38;;;;;;;29.48;18.13;;;7.40;80.90;;;;;;5051906;28;20033;-77
2021/12/03 20:22:11;;;;;;;27.42;18.38;;;7.30;79.70;;;;;;5051716;28;20032;-77
2021/12/03 20:27:24;;;;;;;;;;;7.30;78.60;;;;;;5044886;28;20282;-76
2021/12/03 20:29:53;;;;;;;32.85;20.05;;;7.30;79.00;;;;;;5051348;28;20308;-76
2021/12/03 20:37:59;;;;;;;23.98;14.68;;;7.40;76.80;;;;;;5009266;28;20506;-76
2021/12/03 20:40:28;;;;;;;25.20;14.13;;;7.50;78.10;;;;;;5008812;28;20058;-76
2021/12/03 20:43:27;;;;;;;23.27;13.63;;;7.60;76.40;;;;;;5009140;28;20030;-78
2021/12/03 20:46:07;;;;;;;20.90;13.07;;;7.70;76.60;;;;;;5009085;28;20127;-76
2021/12/03 20:53:55;;;;;;;29.25;16.48;;;7.80;76.20;;;;;;5001258;28;20034;-76
2021/12/03 20:59:35;;;;;;;36.65;20.15;;;7.90;76.30;;;;;;4954134;28;20104;-77
2021/12/03 21:10:15;;;;;;;31.42;16.40;;;8.10;74.70;;;;;;4951598;28;20073;-78
2021/12/03 21:12:44;;;;;;;28.77;17.10;;;8.10;74.60;;;;;;4965853;28;20039;-77